createdAt,value
2018-01-02T00:01:49.962Z,61.90
2018-01-02T00:04:18.800Z,62.00
2018-01-02T00:06:47.950Z,62.00
2018-01-02T00:09:16.845Z,62.10
2018-01-02T00:11:45.738Z,62.30
2018-01-02T00:14:14.625Z,63.00
2018-01-02T00:16:43.516Z,63.20
2018-01-02T00:19:12.830Z,63.20
2018-01-02T00:21:41.606Z,63.60
2018-01-02T00:24:10.513Z,64.20
2018-01-02T00:26:40.150Z,64.50
2018-01-02T00:29:08.999Z,64.60
2018-01-02T00:31:38.256Z,64.90
2018-01-02T00:34:08.015Z,65.30
2018-01-02T00:36:37.536Z,65.50
2018-01-02T00:39:06.298Z,65.70
2018-01-02T00:41:48.082Z,66.10
2018-01-02T00:44:17.494Z,64.20
2018-01-02T00:46:46.333Z,64.40
2018-01-02T00:49:16.010Z,64.10
2018-01-02T00:51:45.912Z,64.30
2018-01-02T00:54:15.863Z,64.00
2018-01-02T00:56:45.950Z,64.80
2018-01-02T00:59:14.992Z,64.50
2018-01-02T01:01:44.543Z,64.60
2018-01-02T01:04:13.399Z,64.80
2018-01-02T01:06:42.325Z,64.80
2018-01-02T01:09:11.631Z,64.80
2018-01-02T01:11:41.135Z,64.50
2018-01-02T01:14:10.401Z,64.60
2018-01-02T01:16:39.225Z,64.80
2018-01-02T01:19:08.114Z,64.80
2018-01-02T01:21:37.418Z,65.20
2018-01-02T01:24:06.692Z,65.20
2018-01-02T01:26:35.772Z,65.60
2018-01-02T01:29:05.117Z,65.70
2018-01-02T01:34:04.868Z,66.20
2018-01-02T01:36:34.258Z,66.10
2018-01-02T01:39:03.638Z,66.40
2018-01-02T01:41:32.571Z,66.60
2018-01-02T01:44:02.293Z,66.70
2018-01-02T01:46:31.753Z,66.80
2018-01-02T01:49:00.439Z,67.00
2018-01-02T01:51:29.553Z,67.40
2018-01-02T01:53:59.086Z,67.50
2018-01-02T01:56:28.000Z,68.30
2018-01-02T01:58:56.921Z,68.30
2018-01-02T02:01:27.048Z,69.00
2018-01-02T02:03:57.430Z,69.70
2018-01-02T02:06:27.295Z,70.10
2018-01-02T02:08:56.381Z,70.00
2018-01-02T02:11:25.280Z,70.70
2018-01-02T02:13:55.577Z,70.50
2018-01-02T02:16:24.648Z,70.80
2018-01-02T02:18:53.733Z,70.90
2018-01-02T02:21:22.678Z,71.10
2018-01-02T02:23:51.360Z,71.50
2018-01-02T02:26:20.046Z,71.00
2018-01-02T02:28:49.552Z,71.30
2018-01-02T02:31:18.649Z,71.30
2018-01-02T02:33:48.258Z,70.90
2018-01-02T02:36:18.038Z,71.00
2018-01-02T02:38:46.759Z,70.30
2018-01-02T02:41:15.393Z,70.10
2018-01-02T02:43:44.134Z,69.70
2018-01-02T02:46:13.375Z,69.80
2018-01-02T02:48:42.532Z,69.70
2018-01-02T02:51:11.601Z,69.60
2018-01-02T02:53:41.124Z,69.80
2018-01-02T02:56:10.221Z,69.10
2018-01-02T02:58:39.277Z,69.20
2018-01-02T03:01:08.208Z,68.70
2018-01-02T03:03:37.319Z,68.50
2018-01-02T03:06:06.372Z,68.30
2018-01-02T03:08:36.408Z,68.90
2018-01-02T03:11:05.402Z,68.30
2018-01-02T03:13:34.198Z,67.70
2018-01-02T03:16:03.503Z,67.50
2018-01-02T03:18:33.004Z,67.30
2018-01-02T03:21:02.432Z,67.10
2018-01-02T03:23:31.648Z,66.90
2018-01-02T03:26:00.496Z,66.70
2018-01-02T03:28:29.386Z,66.40
2018-01-02T03:30:58.283Z,65.80
2018-01-02T03:33:27.393Z,65.50
2018-01-02T03:35:57.092Z,66.10
2018-01-02T03:38:26.149Z,65.10
2018-01-02T03:40:55.950Z,64.70
2018-01-02T03:43:24.696Z,64.50
2018-01-02T03:45:53.637Z,64.70
2018-01-02T03:48:22.537Z,64.00
2018-01-02T03:50:51.762Z,63.60
2018-01-02T03:53:20.448Z,63.30
2018-01-02T03:55:49.546Z,62.80
2018-01-02T03:58:18.718Z,62.70
2018-01-02T04:00:47.888Z,63.00
2018-01-02T04:03:17.041Z,62.90
2018-01-02T04:05:46.144Z,62.70
2018-01-02T04:08:14.931Z,62.70
2018-01-02T04:10:43.812Z,62.80
2018-01-02T04:13:13.050Z,62.90
2018-01-02T04:15:43.633Z,63.20
2018-01-02T04:18:12.745Z,62.40
2018-01-02T04:20:42.283Z,63.20
2018-01-02T04:23:10.968Z,62.40
2018-01-02T04:25:39.658Z,62.40
2018-01-02T04:28:08.347Z,62.50
2018-01-02T04:30:37.501Z,62.60
2018-01-02T04:33:06.188Z,62.50
2018-01-02T04:35:34.974Z,62.70
2018-01-02T04:38:04.481Z,62.70
2018-01-02T04:40:33.794Z,62.80
2018-01-02T04:43:02.473Z,62.90
2018-01-02T04:45:31.874Z,63.00
2018-01-02T04:48:01.377Z,63.30
2018-01-02T04:50:30.166Z,63.40
2018-01-02T04:52:58.854Z,63.60
2018-01-02T04:55:27.742Z,63.70
2018-01-02T04:57:56.444Z,63.80
2018-01-02T05:00:25.323Z,63.90
2018-01-02T05:02:54.213Z,63.70
2018-01-02T05:05:23.000Z,64.10
2018-01-02T05:07:51.622Z,63.70
2018-01-02T05:10:20.373Z,64.10
2018-01-02T05:12:49.056Z,63.80
2018-01-02T05:15:17.742Z,63.90
2018-01-02T05:17:46.841Z,63.80
2018-01-02T05:20:15.527Z,63.70
2018-01-02T05:22:44.349Z,63.20
2018-01-02T05:25:14.946Z,63.80
2018-01-02T05:27:44.049Z,62.90
2018-01-02T05:30:12.733Z,62.90
2018-01-02T05:32:41.624Z,63.00
2018-01-02T05:35:10.303Z,63.00
2018-01-02T05:37:39.751Z,62.70
2018-01-02T05:40:08.497Z,62.70
2018-01-02T05:42:37.594Z,62.80
2018-01-02T05:45:06.687Z,62.80
2018-01-02T05:47:35.579Z,62.70
2018-01-02T05:50:05.141Z,62.90
2018-01-02T05:52:34.325Z,62.60
2018-01-02T05:55:04.710Z,63.10
2018-01-02T05:57:34.213Z,62.30
2018-01-02T06:00:02.839Z,62.20
2018-01-02T06:02:31.998Z,62.00
2018-01-02T06:05:01.296Z,61.80
2018-01-02T06:07:30.804Z,61.60
2018-01-02T06:09:59.490Z,61.60
2018-01-02T06:12:28.176Z,61.30
2018-01-02T06:14:57.065Z,61.10
2018-01-02T06:17:25.752Z,61.40
2018-01-02T06:19:55.260Z,62.30
2018-01-02T06:22:24.045Z,61.30
2018-01-02T06:24:53.554Z,60.90
2018-01-02T06:27:22.245Z,61.00
2018-01-02T06:29:51.744Z,61.40
2018-01-02T06:32:20.591Z,61.80
2018-01-02T06:34:49.832Z,61.80
2018-01-02T06:37:19.031Z,62.20
2018-01-02T06:39:48.954Z,62.20
2018-01-02T06:42:19.172Z,63.20
2018-01-02T06:44:48.263Z,62.70
2018-01-02T06:47:17.775Z,63.00
2018-01-02T06:49:46.458Z,63.10
2018-01-02T06:52:15.346Z,63.20
2018-01-02T06:54:44.236Z,63.70
2018-01-02T06:57:13.547Z,63.70
2018-01-02T06:59:42.634Z,63.80
2018-01-02T07:02:11.324Z,64.20
2018-01-02T07:04:40.595Z,64.60
2018-01-02T07:07:09.716Z,64.60
2018-01-02T07:09:38.613Z,64.60
2018-01-02T07:12:07.293Z,64.80
2018-01-02T07:14:37.105Z,65.80
2018-01-02T07:17:06.922Z,65.40
2018-01-02T07:19:35.604Z,65.50
2018-01-02T07:22:04.438Z,66.00
2018-01-02T07:24:33.321Z,66.50
2018-01-02T07:27:01.970Z,66.10
2018-01-02T07:29:30.770Z,66.50
2018-01-02T07:31:59.859Z,66.20
2018-01-02T07:34:28.951Z,66.50
2018-01-02T07:36:57.638Z,66.50
2018-01-02T07:39:27.348Z,66.90
2018-01-02T07:41:56.751Z,66.60
2018-01-02T07:44:26.364Z,66.50
2018-01-02T07:46:55.250Z,66.60
2018-01-02T07:49:24.344Z,66.60
2018-01-02T07:51:54.367Z,67.10
2018-01-02T07:54:23.259Z,66.50
2018-01-02T07:56:53.529Z,66.40
2018-01-02T07:59:23.087Z,66.40
2018-01-02T08:01:52.594Z,66.20
2018-01-02T08:04:21.280Z,66.20
2018-01-02T08:06:50.268Z,66.30
2018-01-02T08:09:19.008Z,66.10
2018-01-02T08:11:48.613Z,66.00
2018-01-02T08:14:18.072Z,65.80
2018-01-02T08:16:47.165Z,65.90
2018-01-02T08:19:16.671Z,65.80
2018-01-02T08:21:45.769Z,65.90
2018-01-02T08:24:14.455Z,65.70
2018-01-02T08:26:43.752Z,65.80
2018-01-02T08:29:12.645Z,65.70
2018-01-02T08:31:41.328Z,65.50
2018-01-02T08:34:11.748Z,65.30
2018-01-02T08:36:42.735Z,65.40
2018-01-02T08:39:11.902Z,65.00
2018-01-02T08:41:41.725Z,65.50
2018-01-02T08:44:11.213Z,64.80
2018-01-02T08:46:40.720Z,64.70
2018-01-02T08:49:09.476Z,65.10
2018-01-02T08:51:39.020Z,65.00
2018-01-02T08:54:08.130Z,64.90
2018-01-02T08:56:37.621Z,65.50
2018-01-02T08:59:07.155Z,65.30
2018-01-02T09:01:35.905Z,65.80
2018-01-02T09:04:05.021Z,65.40
2018-01-02T09:06:34.511Z,65.10
2018-01-02T09:09:03.397Z,65.10
2018-01-02T09:11:32.188Z,65.20
2018-01-02T09:14:13.573Z,64.90
2018-01-02T09:16:43.280Z,64.80
2018-01-02T09:19:12.068Z,64.70
2018-01-02T09:21:41.595Z,64.60
2018-01-02T09:24:11.290Z,64.60
2018-01-02T09:26:39.909Z,64.60
2018-01-02T09:29:09.476Z,65.00
2018-01-02T09:31:38.317Z,65.10
2018-01-02T09:34:07.159Z,64.70
2018-01-02T09:36:36.251Z,64.70
2018-01-02T09:39:05.290Z,64.90
2018-01-02T09:41:34.442Z,64.60
2018-01-02T09:44:03.950Z,64.80
2018-01-02T09:46:33.773Z,65.00
2018-01-02T09:49:02.857Z,64.70
2018-01-02T09:51:32.382Z,65.30
2018-01-02T09:54:01.877Z,65.20
2018-01-02T09:56:31.484Z,64.80
2018-01-02T09:59:00.981Z,64.00
2018-01-02T10:01:30.495Z,63.70
2018-01-02T10:04:00.716Z,63.80
2018-01-02T10:06:30.327Z,63.90
2018-01-02T10:09:00.043Z,64.00
2018-01-02T10:11:29.945Z,64.10
2018-01-02T10:13:59.243Z,64.80
2018-01-02T10:16:28.854Z,64.60
2018-01-02T10:18:59.015Z,64.00
2018-01-02T10:21:28.170Z,64.80
2018-01-02T10:23:57.267Z,65.30
2018-01-02T10:26:26.157Z,65.60
2018-01-02T10:28:54.788Z,65.80
2018-01-02T10:31:23.736Z,65.90
2018-01-02T10:33:53.378Z,65.90
2018-01-02T10:36:22.542Z,66.00
2018-01-02T10:38:52.043Z,66.40
2018-01-02T10:41:21.550Z,66.00
2018-01-02T10:43:50.248Z,65.30
2018-01-02T10:46:19.740Z,65.40
2018-01-02T10:48:49.661Z,65.60
2018-01-02T10:51:19.571Z,65.80
2018-01-02T10:53:49.079Z,66.00
2018-01-02T10:56:18.174Z,66.10
2018-01-02T10:58:47.274Z,66.10
2018-01-02T11:01:22.149Z,65.80
2018-01-02T11:03:52.106Z,65.40
2018-01-02T11:06:22.033Z,65.00
2018-01-02T11:08:51.342Z,64.60
2018-01-02T11:11:20.236Z,64.90
2018-01-02T11:13:53.782Z,64.50
2018-01-02T11:16:23.335Z,64.40
2018-01-02T11:21:23.152Z,64.80
2018-01-02T11:23:51.846Z,64.00
2018-01-02T11:26:21.210Z,63.80
2018-01-02T11:28:50.666Z,63.60
2018-01-02T11:33:49.764Z,63.60
2018-01-02T11:36:18.555Z,63.50
2018-01-02T11:38:47.447Z,63.80
2018-01-02T11:41:17.284Z,64.10
2018-01-02T11:43:46.462Z,64.40
2018-01-02T11:46:15.591Z,64.10
2018-01-02T11:48:45.802Z,64.30
2018-01-02T11:51:14.974Z,64.00
2018-01-02T11:53:43.663Z,64.30
2018-01-02T11:56:12.961Z,63.70
2018-01-02T11:58:42.874Z,63.40
2018-01-02T12:01:12.380Z,63.70
2018-01-02T12:03:41.893Z,63.10
2018-01-02T12:06:10.583Z,63.20
2018-01-02T12:08:40.077Z,63.50
2018-01-02T12:11:09.580Z,63.50
2018-01-02T12:13:38.282Z,63.50
2018-01-02T12:16:08.131Z,63.50
2018-01-02T12:18:37.276Z,63.40
2018-01-02T12:21:06.789Z,63.30
2018-01-02T12:23:36.909Z,63.60
2018-01-02T12:26:06.412Z,64.10
2018-01-02T12:28:35.502Z,63.60
2018-01-02T12:31:04.398Z,63.70
2018-01-02T12:33:33.899Z,63.80
2018-01-02T12:36:03.405Z,63.60
2018-01-02T12:38:32.719Z,63.40
2018-01-02T12:41:02.213Z,63.00
2018-01-02T12:43:31.104Z,63.00
2018-01-02T12:46:00.382Z,63.40
2018-01-02T12:48:29.721Z,63.00
2018-01-02T12:50:59.470Z,62.60
2018-01-02T12:53:29.126Z,62.80
2018-01-02T12:55:58.171Z,62.90
2018-01-02T12:58:27.319Z,62.90
2018-01-02T13:00:56.821Z,63.30
2018-01-02T13:03:25.815Z,63.40
2018-01-02T13:05:55.323Z,63.30
2018-01-02T13:08:24.469Z,63.40
2018-01-02T13:10:53.615Z,63.50
2018-01-02T13:13:23.119Z,63.60
2018-01-02T13:15:52.623Z,63.70
2018-01-02T13:18:21.822Z,63.70
2018-01-02T13:20:51.739Z,64.40
2018-01-02T13:23:21.245Z,64.00
2018-01-02T13:25:51.055Z,64.80
2018-01-02T13:30:50.783Z,64.00
2018-01-02T13:33:19.882Z,64.20
2018-01-02T13:35:49.593Z,64.00
2018-01-02T13:38:18.994Z,64.00
2018-01-02T13:40:48.604Z,63.90
2018-01-02T13:43:17.706Z,64.10
2018-01-02T13:45:48.363Z,64.30
2018-01-02T13:48:17.940Z,64.40
2018-01-02T13:50:47.444Z,64.60
2018-01-02T13:53:17.086Z,64.60
2018-01-02T13:55:46.250Z,64.40
2018-01-02T13:58:15.755Z,64.50
2018-01-02T14:00:45.262Z,64.50
2018-01-02T14:03:14.766Z,64.60
2018-01-02T14:05:44.882Z,64.50
2018-01-02T14:08:14.387Z,64.60
2018-01-02T14:10:43.895Z,64.50
2018-01-02T14:13:12.789Z,64.10
2018-01-02T14:15:43.252Z,64.50
2018-01-02T14:18:33.507Z,64.20
2018-01-02T14:21:07.595Z,63.80
2018-01-02T14:23:36.925Z,64.20
2018-01-02T14:26:05.784Z,63.80
2018-01-02T14:28:35.109Z,63.60
2018-01-02T14:31:06.096Z,63.70
2018-01-02T14:33:35.044Z,63.40
2018-01-02T14:36:03.830Z,63.20
2018-01-02T14:38:33.335Z,63.40
2018-01-02T14:41:02.638Z,63.00
2018-01-02T14:43:31.732Z,63.30
2018-01-02T14:46:04.312Z,63.30
2018-01-02T14:48:33.782Z,63.30
2018-01-02T14:51:02.506Z,63.30
2018-01-02T14:53:32.213Z,63.20
2018-01-02T14:56:01.837Z,63.10
2018-01-02T14:58:31.122Z,63.20
2018-01-02T15:01:00.216Z,63.40
2018-01-02T15:03:29.925Z,63.00
2018-01-02T15:05:59.656Z,63.20
2018-01-02T15:08:28.734Z,63.10
2018-01-02T15:10:57.820Z,62.90
2018-01-02T15:13:27.537Z,62.80
2018-01-02T15:15:57.354Z,63.30
2018-01-02T15:18:27.029Z,62.80
2018-01-02T15:20:56.054Z,63.30
2018-01-02T15:23:24.949Z,63.20
2018-01-02T15:25:53.743Z,63.20
2018-01-02T15:28:23.443Z,63.90
2018-01-02T15:30:53.059Z,63.60
2018-01-02T15:33:22.567Z,63.60
2018-01-02T15:35:51.243Z,63.90
2018-01-02T15:38:20.717Z,64.10
2018-01-02T15:40:49.948Z,64.40
2018-01-02T15:43:18.634Z,64.40
2018-01-02T15:45:48.242Z,64.40
2018-01-02T15:48:17.029Z,64.80
2018-01-02T15:50:47.358Z,64.90
2018-01-02T15:53:18.556Z,65.00
2018-01-02T15:55:47.395Z,65.20
2018-01-02T15:58:16.692Z,65.30
2018-01-02T16:00:46.570Z,65.50
2018-01-02T16:03:16.364Z,65.60
2018-01-02T16:05:45.517Z,65.90
2018-01-02T16:08:15.023Z,66.10
2018-01-02T16:10:44.321Z,66.10
2018-01-02T16:13:13.414Z,66.30
2018-01-02T16:15:43.841Z,66.40
2018-01-02T16:18:13.453Z,66.80
2018-01-02T16:20:42.239Z,66.90
2018-01-02T16:23:11.032Z,66.90
2018-01-02T16:25:40.637Z,67.30
2018-01-02T16:28:10.348Z,67.60
2018-01-02T16:30:39.849Z,67.50
2018-01-02T16:33:09.160Z,68.20
2018-01-02T16:35:38.466Z,68.10
2018-01-02T16:38:08.105Z,68.60
2018-01-02T16:40:38.383Z,68.40
2018-01-02T16:43:07.896Z,68.60
2018-01-02T16:45:37.402Z,68.70
2018-01-02T16:48:06.899Z,68.80
2018-01-02T16:50:36.617Z,68.90
2018-01-02T16:53:05.710Z,69.60
2018-01-02T16:55:35.576Z,69.40
2018-01-02T16:58:04.923Z,69.70
2018-01-02T17:00:34.531Z,70.00
2018-01-02T17:03:03.835Z,70.10
2018-01-02T17:05:33.450Z,70.70
2018-01-02T17:08:02.126Z,71.10
2018-01-02T17:10:31.732Z,70.60
2018-01-02T17:13:00.831Z,70.40
2018-01-02T17:15:30.435Z,70.80
2018-01-02T17:17:59.634Z,70.90
2018-01-02T17:20:29.088Z,71.10
2018-01-02T17:22:59.467Z,72.00
2018-01-02T17:25:29.177Z,71.40
2018-01-02T17:27:58.276Z,71.40
2018-01-02T17:30:27.987Z,71.70
2018-01-02T17:32:57.486Z,71.90
2018-01-02T17:35:27.003Z,72.60
2018-01-02T17:37:56.294Z,72.00
2018-01-02T17:40:26.117Z,72.90
2018-01-02T17:42:55.961Z,72.30
2018-01-02T17:45:25.528Z,72.10
2018-01-02T17:47:55.030Z,72.30
2018-01-02T17:50:24.336Z,72.50
2018-01-02T17:52:53.838Z,72.80
2018-01-02T17:55:23.751Z,73.50
2018-01-02T17:57:53.261Z,72.60
2018-01-02T18:00:22.985Z,73.40
2018-01-02T18:02:52.473Z,72.70
2018-01-02T18:05:22.285Z,72.90
2018-01-02T18:07:51.618Z,72.50
2018-01-02T18:10:21.089Z,72.60
2018-01-02T18:12:50.761Z,72.80
2018-01-02T18:15:19.899Z,72.60
2018-01-02T18:17:49.200Z,72.70
2018-01-02T18:20:18.752Z,73.60
2018-01-02T18:22:49.338Z,73.80
2018-01-02T18:25:18.838Z,73.30
2018-01-02T18:27:48.448Z,73.40
2018-01-02T18:30:18.232Z,73.30
2018-01-02T18:32:48.892Z,73.20
2018-01-02T18:35:18.207Z,73.20
2018-01-02T18:37:47.701Z,74.00
2018-01-02T18:40:17.410Z,73.60
2018-01-02T18:42:46.708Z,73.10
2018-01-02T18:45:15.606Z,73.50
2018-01-02T18:47:46.684Z,73.60
2018-01-02T18:50:15.944Z,73.60
2018-01-02T18:52:45.446Z,73.90
2018-01-02T18:55:14.950Z,74.00
2018-01-02T18:57:44.460Z,73.80
2018-01-02T19:00:13.774Z,73.80
2018-01-02T19:02:43.481Z,73.80
2018-01-02T19:05:13.133Z,73.70
2018-01-02T19:07:42.278Z,73.70
2018-01-02T19:10:11.928Z,73.60
2018-01-02T19:12:41.082Z,73.70
2018-01-02T19:17:40.097Z,73.70
2018-01-02T19:20:09.395Z,74.10
2018-01-02T19:22:38.694Z,74.00
2018-01-02T19:25:08.198Z,74.20
2018-01-02T19:27:38.011Z,74.60
2018-01-02T19:30:06.906Z,74.50
2018-01-02T19:32:36.610Z,74.60
2018-01-02T19:35:05.299Z,74.50
2018-01-02T19:37:34.598Z,74.70
2018-01-02T19:40:03.319Z,74.80
2018-01-02T19:42:32.593Z,75.20
2018-01-02T19:45:02.609Z,75.80
2018-01-02T19:47:32.215Z,75.70
2018-01-02T19:50:01.098Z,75.20
2018-01-02T19:52:30.714Z,75.20
2018-01-02T19:55:00.735Z,75.90
2018-01-02T19:57:29.619Z,75.30
2018-01-02T19:59:58.721Z,75.40
2018-01-02T20:02:28.527Z,75.50
2018-01-02T20:04:57.729Z,75.60
2018-01-02T20:07:27.026Z,75.60
2018-01-02T20:09:56.327Z,75.90
2018-01-02T20:12:26.035Z,76.30
2018-01-02T20:14:55.989Z,75.60
2018-01-02T20:17:26.514Z,75.50
2018-01-02T20:19:55.784Z,75.80
2018-01-02T20:22:25.854Z,76.60
2018-01-02T20:24:55.818Z,76.50
2018-01-02T20:27:25.018Z,76.50
2018-01-02T20:29:54.731Z,77.10
2018-01-02T20:32:24.433Z,76.40
2018-01-02T20:34:53.941Z,76.40
2018-01-02T20:37:22.831Z,76.40
2018-01-02T20:39:52.130Z,76.40
2018-01-02T20:42:21.515Z,76.40
2018-01-02T20:44:50.327Z,76.60
2018-01-02T20:47:20.034Z,76.50
2018-01-02T20:49:48.923Z,76.80
2018-01-02T20:52:18.226Z,76.80
2018-01-02T20:54:47.881Z,76.80
2018-01-02T20:57:16.621Z,76.90
2018-01-02T20:59:46.075Z,76.90
2018-01-02T21:02:16.658Z,77.60
2018-01-02T21:04:45.751Z,77.10
2018-01-02T21:07:14.871Z,76.10
2018-01-02T21:09:43.740Z,77.20
2018-01-02T21:12:13.454Z,77.20
2018-01-02T21:14:42.757Z,77.40
2018-01-02T21:17:11.597Z,77.50
2018-01-02T21:19:41.356Z,77.70
2018-01-02T21:22:10.424Z,76.70
2018-01-02T21:24:39.315Z,77.30
2018-01-02T21:27:08.434Z,77.70
2018-01-02T21:29:37.944Z,77.80
2018-01-02T21:32:07.036Z,77.70
2018-01-02T21:34:36.131Z,78.00
2018-01-02T21:37:04.816Z,78.00
2018-01-02T21:39:33.910Z,78.00
2018-01-02T21:42:02.805Z,78.20
2018-01-02T21:44:32.313Z,78.10
2018-01-02T21:47:01.812Z,78.00
2018-01-02T21:49:31.345Z,78.30
2018-01-02T21:52:00.209Z,77.90
2018-01-02T21:54:29.716Z,78.30
2018-01-02T21:56:59.219Z,78.50
2018-01-02T21:59:28.526Z,78.40
2018-01-02T22:01:57.411Z,78.30
2018-01-02T22:04:27.127Z,78.40
2018-01-02T22:06:56.014Z,78.20
2018-01-02T22:09:25.529Z,78.20
2018-01-02T22:11:55.231Z,78.60
2018-01-02T22:14:24.331Z,78.00
2018-01-02T22:16:53.625Z,78.30
2018-01-02T22:19:23.573Z,78.60
2018-01-02T22:21:53.047Z,78.60
2018-01-02T22:24:21.937Z,78.40
2018-01-02T22:26:51.074Z,78.50
2018-01-02T22:29:19.922Z,78.50
2018-01-02T22:31:49.023Z,78.70
2018-01-02T22:34:18.524Z,79.20
2018-01-02T22:36:47.594Z,79.20
2018-01-02T22:39:17.141Z,79.20
2018-01-02T22:41:46.837Z,79.10
2018-01-02T22:44:16.509Z,79.20
2018-01-02T22:46:46.054Z,79.00
2018-01-02T22:49:14.944Z,79.20
2018-01-02T22:51:44.245Z,79.00
2018-01-02T22:54:13.346Z,79.10
2018-01-02T22:56:42.440Z,78.90
2018-01-02T22:59:11.326Z,79.10
2018-01-02T23:01:40.585Z,79.20
2018-01-02T23:04:11.169Z,79.20
2018-01-02T23:06:40.665Z,79.40
2018-01-02T23:09:09.778Z,79.50
2018-01-02T23:11:41.729Z,79.70
2018-01-02T23:14:10.613Z,79.60
2018-01-02T23:16:40.064Z,79.60
2018-01-02T23:19:08.806Z,79.50
2018-01-02T23:21:37.609Z,79.80
2018-01-02T23:24:06.439Z,79.70
2018-01-02T23:26:35.577Z,79.70
2018-01-02T23:29:04.269Z,79.90
2018-01-02T23:31:33.567Z,80.00
2018-01-02T23:34:02.662Z,80.10
2018-01-02T23:36:32.170Z,80.10
2018-01-02T23:39:02.195Z,80.50
2018-01-02T23:41:31.951Z,80.00
2018-01-02T23:44:00.786Z,80.40
2018-01-02T23:46:30.301Z,80.50
2018-01-02T23:49:00.203Z,80.20
2018-01-02T23:51:29.506Z,80.30
2018-01-02T23:53:59.010Z,80.40
2018-01-02T23:56:28.310Z,80.40
2018-01-02T23:58:57.408Z,80.20
